Time;durP1;ratioP1;P1;durP2;ratioP2;P2;SDS_P1;SDS_P2;PMS_P1;PMS_P2;Temp;Humidity;BMP_temperature;BMP_pressure;BME280_temperature;BME280_humidity;BME280_pressure;Samples;Min_cycle;Max_cycle;Signal;HPM_P1;HPM_P2
2023/12/09 00:00:41;;;;;;;19.73;11.02;;;;;;;7.89;98.73;100031.53;5139147;27;20084;-65
2023/12/09 00:03:08;;;;;;;20.08;11.13;;;;;;;7.91;98.74;100036.66;5137054;27;20254;-62
2023/12/09 00:05:34;;;;;;;18.75;10.38;;;;;;;7.91;98.56;100039.28;5137699;27;20363;-62
2023/12/09 00:07:59;;;;;;;16.63;9.75;;;;;;;7.83;98.59;100042.63;5136895;27;20039;-65
2023/12/09 00:10:25;;;;;;;16.65;10.40;;;;;;;7.77;99.57;100044.97;5136228;27;20046;-65
2023/12/09 00:12:50;;;;;;;20.30;11.20;;;;;;;7.74;100.00;100045.25;5136876;27;20106;-65
2023/12/09 00:15:16;;;;;;;21.45;12.45;;;;;;;7.76;100.00;100045.94;5136575;27;20039;-62
2023/12/09 00:17:42;;;;;;;21.25;11.75;;;;;;;7.78;99.70;100046.63;5136649;27;20058;-63
2023/12/09 00:20:08;;;;;;;21.20;12.10;;;;;;;7.88;99.75;100042.22;5136369;27;20076;-65
2023/12/09 00:22:33;;;;;;;20.25;11.43;;;;;;;7.93;98.46;100045.25;5137774;27;20027;-65
2023/12/09 00:24:59;;;;;;;21.83;11.48;;;;;;;7.96;98.49;100048.47;5136970;27;20081;-65
2023/12/09 00:27:25;;;;;;;19.83;9.95;;;;;;;8.03;98.20;100038.19;5136364;27;20034;-65
2023/12/09 00:29:50;;;;;;;18.67;11.65;;;;;;;7.99;97.70;100029.72;5136121;27;20313;-63
2023/12/09 00:32:16;;;;;;;19.52;10.05;;;;;;;8.04;97.68;100037.22;5136320;27;20027;-62
2023/12/09 00:34:41;;;;;;;19.02;10.73;;;;;;;8.08;97.39;100045.69;5136420;27;20515;-64
2023/12/09 00:37:07;;;;;;;25.50;13.20;;;;;;;8.01;97.04;100045.41;5136256;27;20035;-62
2023/12/09 00:39:33;;;;;;;21.63;12.70;;;;;;;8.00;97.04;100041.94;5136027;27;20054;-63
2023/12/09 00:41:59;;;;;;;20.42;11.25;;;;;;;8.00;96.73;100044.56;5134992;27;20201;-62
2023/12/09 00:44:24;;;;;;;20.50;11.48;;;;;;;8.03;97.69;100040.81;5135854;27;20034;-63
2023/12/09 00:46:50;;;;;;;22.35;12.45;;;;;;;8.05;97.52;100048.59;5135923;27;20473;-62
2023/12/09 00:49:15;;;;;;;23.20;13.00;;;;;;;8.11;96.72;100048.03;5135159;27;20049;-64
2023/12/09 00:51:41;;;;;;;22.65;13.10;;;;;;;8.07;96.90;100051.94;5136100;27;20103;-62
2023/12/09 00:54:06;;;;;;;20.95;12.75;;;;;;;8.08;97.26;100057.06;5136039;27;20039;-62
2023/12/09 00:56:32;;;;;;;22.65;12.95;;;;;;;8.08;97.43;100051.78;5136270;27;20031;-65
2023/12/09 00:58:57;;;;;;;21.65;12.23;;;;;;;8.09;96.86;100053.47;5135764;27;20340;-63
2023/12/09 01:01:23;;;;;;;18.15;10.52;;;;;;;8.11;97.02;100055.97;5135544;27;20039;-65
2023/12/09 01:03:48;;;;;;;20.63;11.00;;;;;;;8.09;97.11;100053.47;5136223;27;20068;-65
2023/12/09 01:06:14;;;;;;;19.70;11.27;;;;;;;8.03;97.92;100048.75;5135121;27;20368;-63
2023/12/09 01:08:39;;;;;;;22.20;10.05;;;;;;;8.02;97.76;100041.78;5135708;27;20031;-63
2023/12/09 01:11:05;;;;;;;19.67;10.60;;;;;;;8.04;97.50;100044.28;5135975;27;20117;-63
2023/12/09 01:13:31;;;;;;;23.08;10.90;;;;;;;8.01;97.68;100038.34;5136514;27;20032;-65
2023/12/09 01:15:56;;;;;;;19.55;11.20;;;;;;;7.95;98.06;100046.78;5136738;27;20412;-62
2023/12/09 01:18:22;;;;;;;26.13;12.18;;;;;;;7.97;98.14;100046.66;5136361;27;20042;-65
2023/12/09 01:20:47;;;;;;;19.40;11.20;;;;;;;7.95;98.31;100044.16;5135896;27;20328;-65
2023/12/09 01:23:13;;;;;;;19.80;11.18;;;;;;;7.92;98.14;100043.59;5136100;27;20079;-62
2023/12/09 01:25:39;;;;;;;22.17;11.73;;;;;;;7.95;98.02;100032.78;5137211;27;20039;-63
2023/12/09 01:28:04;;;;;;;20.63;10.23;;;;;;;7.98;97.98;100029.88;5135119;27;20091;-62
2023/12/09 01:30:30;;;;;;;20.20;11.25;;;;;;;7.95;98.04;100044.16;5134153;27;20210;-62
2023/12/09 01:32:56;;;;;;;22.75;12.05;;;;;;;7.96;97.97;100029.16;5134868;27;20035;-62
2023/12/09 01:35:21;;;;;;;19.27;11.85;;;;;;;7.91;97.68;100026.13;5135452;27;20193;-62
2023/12/09 01:37:47;;;;;;;21.52;11.70;;;;;;;7.83;98.16;100021.53;5136463;27;20094;-64
2023/12/09 01:40:16;;;;;;;18.35;10.80;;;;;;;7.72;97.85;100019.03;5135509;27;20063;-62
2023/12/09 01:42:42;;;;;;;18.67;10.18;;;;;;;7.63;98.86;100025.13;5135037;27;20095;-65
2023/12/09 01:45:09;;;;;;;16.55;10.45;;;;;;;7.53;98.94;100027.72;5134882;27;20094;-65
2023/12/09 01:47:35;;;;;;;23.08;10.65;;;;;;;7.47;99.11;100025.63;5135446;27;20410;-65
2023/12/09 01:50:03;;;;;;;17.92;10.25;;;;;;;7.46;99.27;100031.88;5135172;27;20074;-65
2023/12/09 01:52:33;;;;;;;21.65;11.70;;;;;;;7.48;98.40;100029.94;5136054;27;20240;-65
2023/12/09 01:54:59;;;;;;;21.08;11.52;;;;;;;7.46;99.23;100026.59;5134171;27;20038;-62
2023/12/09 01:57:26;;;;;;;22.67;11.30;;;;;;;7.51;98.66;100019.13;5135683;27;20039;-64
2023/12/09 01:59:53;;;;;;;23.42;12.18;;;;;;;7.47;98.08;100025.63;5136587;27;20184;-62
2023/12/09 02:02:45;;;;;;;23.05;12.55;;;;;;;7.50;97.89;100029.81;5136451;27;20030;-63
2023/12/09 02:05:11;;;;;;;20.58;11.07;;;;;;;7.50;96.75;100024.53;5087519;27;20280;-63
2023/12/09 02:07:37;;;;;;;25.10;11.75;;;;;;;7.40;97.59;100021.88;5135850;27;20030;-65
2023/12/09 02:10:03;;;;;;;20.85;11.63;;;;;;;7.38;97.50;100029.09;5134835;27;20049;-62
2023/12/09 02:12:44;;;;;;;23.98;11.95;;;;;;;7.25;98.01;100020.56;5134776;27;20328;-64
2023/12/09 02:15:24;;;;;;;22.83;11.50;;;;;;;7.17;98.57;100023.84;5134451;27;20046;-62
2023/12/09 02:18:05;;;;;;;26.10;14.63;;;;;;;7.15;97.52;100032.84;5134583;27;20363;-62
2023/12/09 02:20:31;;;;;;;37.67;20.77;;;;;;;7.01;98.62;100024.34;5134173;27;20054;-65
2023/12/09 02:23:12;;;;;;;36.70;25.02;;;;;;;7.05;98.62;100030.19;5134748;27;20027;-62
2023/12/09 02:25:39;;;;;;;43.22;28.83;;;;;;;7.07;97.81;100019.53;5135831;27;20329;-65
2023/12/09 02:28:27;;;;;;;36.80;24.25;;;;;;;7.13;96.66;100025.09;5135747;27;20050;-65
2023/12/09 02:31:07;;;;;;;35.38;21.17;;;;;;;7.08;96.47;100015.94;5134101;27;20279;-62
2023/12/09 02:33:34;;;;;;;35.80;20.17;;;;;;;7.18;95.46;100033.44;5134453;27;20031;-62
2023/12/09 02:36:03;;;;;;;32.42;19.50;;;;;;;7.21;94.36;100030.53;5134427;27;20043;-62
2023/12/09 02:38:31;;;;;;;34.75;20.10;;;;;;;7.06;94.22;100034.50;5134773;27;20042;-62
2023/12/09 02:40:58;;;;;;;26.38;15.68;;;;;;;7.00;94.84;100035.03;5134374;27;20296;-63
2023/12/09 02:43:23;;;;;;;33.85;17.02;;;;;;;7.04;95.42;100033.78;5138711;27;20342;-62
2023/12/09 02:45:49;;;;;;;32.25;18.60;;;;;;;7.00;95.62;100032.38;5138336;27;20076;-63
2023/12/09 02:48:14;;;;;;;32.50;18.50;;;;;;;7.11;95.55;100034.94;5137862;27;20391;-62
2023/12/09 02:50:40;;;;;;;50.03;25.05;;;;;;;7.14;94.46;100037.28;5137706;27;20042;-62
2023/12/09 02:53:05;;;;;;;24.63;15.48;;;;;;;7.11;95.11;100048.09;5138416;27;20101;-63
2023/12/09 02:55:31;;;;;;;23.75;14.27;;;;;;;7.00;95.26;100043.75;5137999;27;20042;-62
2023/12/09 02:57:56;;;;;;;25.92;12.90;;;;;;;6.97;95.70;100046.66;5137651;27;20039;-62
2023/12/09 03:00:21;;;;;;;29.08;15.98;;;;;;;7.03;95.47;100042.66;5137761;27;20031;-62
2023/12/09 03:02:47;;;;;;;29.13;15.13;;;;;;;7.09;95.32;100033.41;5138093;27;20038;-62
2023/12/09 03:05:12;;;;;;;22.58;15.00;;;;;;;7.12;93.91;100038.38;5138078;27;20403;-63
2023/12/09 03:07:38;;;;;;;22.95;14.68;;;;;;;7.12;92.46;100033.97;5138164;27;20351;-62
2023/12/09 03:10:04;;;;;;;28.90;14.80;;;;;;;7.16;92.44;100047.69;5138002;27;20043;-63
2023/12/09 03:12:29;;;;;;;22.10;12.93;;;;;;;7.10;92.38;100043.78;5138641;27;20042;-63
2023/12/09 03:14:54;;;;;;;23.05;15.45;;;;;;;7.05;91.02;100046.00;5137161;27;20052;-62
2023/12/09 03:17:21;;;;;;;23.52;15.18;;;;;;;7.02;90.92;100046.25;5140393;27;20031;-63
2023/12/09 03:19:46;;;;;;;18.77;10.70;;;;;;;6.95;90.97;100039.84;5137589;27;20023;-64
2023/12/09 03:22:12;;;;;;;17.83;9.43;;;;;;;6.89;91.81;100038.56;5137744;27;20039;-63
2023/12/09 03:24:37;;;;;;;14.95;9.52;;;;;;;6.96;91.49;100046.78;5138214;27;20035;-63
2023/12/09 03:27:03;;;;;;;17.25;10.25;;;;;;;6.97;91.93;100043.19;5138342;27;20053;-62
2023/12/09 03:29:28;;;;;;;18.45;10.18;;;;;;;6.94;91.39;100039.00;5138464;27;20078;-63
2023/12/09 03:31:53;;;;;;;20.08;11.30;;;;;;;6.90;90.76;100047.31;5138239;27;20043;-64
2023/12/09 03:34:19;;;;;;;19.10;10.70;;;;;;;6.85;91.13;100042.44;5138263;27;20041;-62
2023/12/09 03:36:44;;;;;;;16.33;9.68;;;;;;;6.77;91.36;100044.06;5138372;27;20035;-63
2023/12/09 03:39:11;;;;;;;15.30;8.98;;;;;;;6.46;92.60;100038.75;5138273;27;20045;-62
2023/12/09 03:41:36;;;;;;;15.35;8.98;;;;;;;6.41;93.19;100033.03;5137887;27;20027;-63
2023/12/09 03:44:02;;;;;;;14.27;7.93;;;;;;;6.45;93.45;100037.09;5137718;27;20043;-63
2023/12/09 03:46:28;;;;;;;15.20;8.35;;;;;;;6.44;93.68;100038.03;5138144;27;20310;-63
2023/12/09 03:48:53;;;;;;;14.35;8.52;;;;;;;6.47;92.59;100034.31;5138001;27;20035;-62
2023/12/09 03:51:19;;;;;;;14.02;8.70;;;;;;;6.49;93.37;100029.75;5138115;27;20232;-62
2023/12/09 03:53:44;;;;;;;13.35;6.97;;;;;;;6.54;93.06;100038.94;5137125;27;20046;-63
2023/12/09 03:56:13;;;;;;;14.25;7.63;;;;;;;6.45;92.83;100031.81;5137727;27;20050;-63
2023/12/09 03:58:38;;;;;;;13.35;7.60;;;;;;;6.56;92.43;100036.19;5137697;27;20080;-62
2023/12/09 04:01:04;;;;;;;15.50;7.55;;;;;;;6.60;92.35;100033.16;5137525;27;20034;-63
2023/12/09 04:03:30;;;;;;;12.70;7.43;;;;;;;6.52;92.43;100034.78;5137570;27;20445;-63
2023/12/09 04:05:55;;;;;;;15.50;8.85;;;;;;;6.48;92.25;100028.94;5125044;27;20042;-63
2023/12/09 04:08:21;;;;;;;18.27;8.25;;;;;;;6.44;93.46;100042.47;5137746;27;20042;-62
2023/12/09 04:10:46;;;;;;;12.13;7.15;;;;;;;6.39;94.16;100051.56;5138189;27;20329;-62
2023/12/09 04:13:12;;;;;;;18.83;8.32;;;;;;;6.27;93.90;100043.88;5137610;27;20220;-62
2023/12/09 04:15:41;;;;;;;16.08;8.90;;;;;;;6.08;94.81;100048.00;5137804;27;20043;-63
2023/12/09 04:18:07;;;;;;;14.43;8.55;;;;;;;6.00;95.96;100053.03;5137180;27;20351;-63
2023/12/09 04:20:32;;;;;;;12.90;7.50;;;;;;;5.96;96.84;100045.53;5136779;27;20036;-63
2023/12/09 04:22:58;;;;;;;14.07;7.57;;;;;;;5.90;96.88;100054.75;5137202;27;20181;-64
2023/12/09 04:25:24;;;;;;;30.30;9.98;;;;;;;5.71;97.25;100057.16;5137326;27;20206;-65
2023/12/09 04:27:54;;;;;;;27.02;9.02;;;;;;;5.18;100.00;100056.97;5137241;27;20023;-63
2023/12/09 04:30:21;;;;;;;42.47;9.70;;;;;;;5.31;100.00;100055.09;5136936;27;20429;-62
2023/12/09 04:32:47;;;;;;;30.70;10.98;;;;;;;5.26;100.00;100067.75;5137385;27;20034;-65
2023/12/09 04:35:12;;;;;;;45.60;12.20;;;;;;;5.24;100.00;100066.19;5137264;27;20043;-65
2023/12/09 04:37:38;;;;;;;34.75;11.02;;;;;;;5.19;100.00;100065.69;5137165;27;20031;-63
2023/12/09 04:40:12;;;;;;;33.05;12.15;;;;;;;5.15;100.00;100062.47;5137311;27;20039;-65
2023/12/09 04:42:39;;;;;;;53.33;11.73;;;;;;;5.11;100.00;100061.03;5136280;27;20031;-64
2023/12/09 04:45:06;;;;;;;47.55;12.18;;;;;;;5.10;100.00;100054.94;5136770;27;20035;-64
2023/12/09 04:47:32;;;;;;;52.40;13.38;;;;;;;5.24;100.00;100059.16;5137189;27;20064;-64
2023/12/09 04:49:58;;;;;;;46.97;13.32;;;;;;;5.34;100.00;100067.16;5135703;27;20368;-65
2023/12/09 04:52:23;;;;;;;49.80;13.55;;;;;;;5.41;100.00;100063.91;5136648;27;20023;-62
2023/12/09 04:54:49;;;;;;;44.33;12.35;;;;;;;5.59;100.00;100066.03;5136316;27;20075;-65
2023/12/09 04:57:15;;;;;;;53.00;14.88;;;;;;;5.70;100.00;100058.13;5136716;27;20080;-61
2023/12/09 04:59:40;;;;;;;86.95;17.90;;;;;;;5.83;100.00;100063.22;5136200;27;20043;-65
2023/12/09 05:02:05;;;;;;;40.10;16.02;;;;;;;5.97;100.00;100069.06;5136770;27;20065;-64
2023/12/09 05:04:31;;;;;;;39.42;16.63;;;;;;;6.15;100.00;100063.25;5135437;27;20034;-62
2023/12/09 05:06:56;;;;;;;37.97;15.73;;;;;;;6.21;100.00;100060.97;5137511;27;20458;-63
2023/12/09 05:09:24;;;;;;;38.90;15.38;;;;;;;6.32;99.73;100073.25;5137372;27;20043;-62
2023/12/09 05:11:50;;;;;;;32.20;15.40;;;;;;;6.32;99.34;100073.25;5137749;27;20352;-62
2023/12/09 05:14:16;;;;;;;36.92;14.43;;;;;;;6.29;99.25;100076.13;5136393;27;20027;-62
2023/12/09 05:16:41;;;;;;;39.60;13.63;;;;;;;6.24;98.90;100075.66;5137198;27;20316;-63
2023/12/09 05:19:06;;;;;;;36.90;16.15;;;;;;;6.09;99.97;100078.56;5134188;27;20043;-65
2023/12/09 05:21:32;;;;;;;48.22;22.52;;;;;;;6.09;99.91;100083.84;5136658;27;20031;-62
2023/12/09 05:23:58;;;;;;;36.35;14.15;;;;;;;5.90;100.00;100090.72;5136929;27;20043;-62
2023/12/09 05:26:25;;;;;;;44.97;18.08;;;;;;;6.04;100.00;100090.44;5136163;27;20054;-62
2023/12/09 05:28:51;;;;;;;52.97;22.55;;;;;;;6.02;100.00;100097.59;5136652;27;20030;-64
2023/12/09 05:31:17;;;;;;;274.98;117.22;;;;;;;6.05;100.00;100105.25;5136340;27;20107;-63
2023/12/09 05:33:43;;;;;;;56.38;25.27;;;;;;;6.06;100.00;100097.22;5135736;27;20046;-64
2023/12/09 05:36:09;;;;;;;42.92;21.25;;;;;;;6.02;100.00;100100.22;5136189;27;20644;-64
2023/12/09 05:38:34;;;;;;;30.45;14.18;;;;;;;5.88;100.00;100096.06;5135535;27;20055;-64
2023/12/09 05:40:59;;;;;;;37.05;17.20;;;;;;;5.92;100.00;100101.94;5134556;27;20039;-64
2023/12/09 05:43:26;;;;;;;26.60;11.45;;;;;;;5.81;100.00;100089.63;5136255;27;20035;-64
2023/12/09 05:45:51;;;;;;;30.65;13.90;;;;;;;5.82;100.00;100100.97;5135313;27;20035;-64
2023/12/09 05:48:16;;;;;;;26.92;12.55;;;;;;;5.72;100.00;100101.72;5135236;27;20205;-64
2023/12/09 05:50:43;;;;;;;39.15;12.77;;;;;;;5.65;100.00;100095.28;5134936;27;20551;-63
2023/12/09 05:53:08;;;;;;;38.13;13.77;;;;;;;5.66;100.00;100086.44;5135705;27;20038;-66
2023/12/09 05:55:34;;;;;;;42.75;16.95;;;;;;;5.43;100.00;100096.13;5134960;27;20080;-66
2023/12/09 05:57:59;;;;;;;44.35;21.02;;;;;;;5.31;100.00;100091.00;5134883;27;20035;-66
2023/12/09 06:00:25;;;;;;;40.15;21.95;;;;;;;5.42;100.00;100096.25;5135318;27;20267;-63
2023/12/09 06:02:50;;;;;;;32.72;21.25;;;;;;;5.17;100.00;100091.22;5134871;27;20043;-66
2023/12/09 06:05:16;;;;;;;22.88;13.68;;;;;;;5.00;100.00;100088.13;5134555;27;20036;-64
2023/12/09 06:07:41;;;;;;;34.42;22.88;;;;;;;4.96;100.00;100096.34;5135104;27;20452;-66
2023/12/09 06:10:08;;;;;;;29.20;16.20;;;;;;;5.10;100.00;100099.56;5134835;27;20046;-66
2023/12/09 06:12:33;;;;;;;25.85;14.73;;;;;;;5.13;100.00;100107.22;5134772;27;20035;-64
2023/12/09 06:14:59;;;;;;;18.92;10.98;;;;;;;5.24;100.00;100105.56;5135159;27;20235;-64
2023/12/09 06:17:24;;;;;;;15.57;9.45;;;;;;;5.20;99.70;100109.38;5135739;27;20035;-66
2023/12/09 06:19:50;;;;;;;14.70;7.90;;;;;;;5.08;99.55;100113.78;5135203;27;20479;-64
2023/12/09 06:22:15;;;;;;;13.70;8.18;;;;;;;5.08;99.29;100119.03;5135261;27;20328;-66
2023/12/09 06:24:44;;;;;;;13.07;7.13;;;;;;;5.08;99.05;100121.66;5135500;27;20035;-65
2023/12/09 06:27:09;;;;;;;14.65;7.82;;;;;;;5.00;100.00;100132.72;5134875;27;20027;-63
2023/12/09 06:29:35;;;;;;;15.30;9.18;;;;;;;4.98;99.87;100136.44;5134976;27;20088;-65
2023/12/09 06:32:00;;;;;;;21.00;12.32;;;;;;;5.00;100.00;100137.97;5135243;27;20066;-66
2023/12/09 06:34:26;;;;;;;24.02;13.50;;;;;;;5.01;99.95;100129.16;5130923;27;20043;-64
2023/12/09 06:36:51;;;;;;;29.38;15.20;;;;;;;5.00;100.00;100132.72;5122439;28;20034;-64
2023/12/09 06:39:17;;;;;;;24.88;13.27;;;;;;;5.05;99.69;100133.22;5121412;28;20048;-66
2023/12/09 06:41:42;;;;;;;22.15;12.88;;;;;;;5.08;99.36;100138.22;5121670;28;20039;-66
2023/12/09 06:44:08;;;;;;;22.27;12.95;;;;;;;5.02;99.43;100143.94;5121763;27;20341;-66
2023/12/09 06:46:40;;;;;;;29.40;11.57;;;;;;;5.18;99.93;100150.66;5121826;28;20035;-66
2023/12/09 06:49:06;;;;;;;23.60;12.48;;;;;;;5.29;99.80;100153.31;5121595;28;20058;-66
2023/12/09 06:51:32;;;;;;;34.85;14.55;;;;;;;5.27;99.36;100148.19;5125465;28;20031;-63
2023/12/09 06:53:57;;;;;;;35.47;14.23;;;;;;;5.19;98.99;100158.41;5130040;28;20047;-64
2023/12/09 06:56:23;;;;;;;26.75;14.32;;;;;;;5.06;99.61;100150.63;5125399;27;20036;-66
2023/12/09 06:58:49;;;;;;;24.38;13.75;;;;;;;5.01;100.00;100155.41;5121128;28;20027;-64
2023/12/09 07:01:19;;;;;;;24.17;13.52;;;;;;;5.14;99.07;100155.31;5120626;28;20050;-66
2023/12/09 07:03:45;;;;;;;27.52;15.27;;;;;;;5.05;99.60;100156.84;5120818;28;20028;-66
2023/12/09 07:06:10;;;;;;;28.08;14.02;;;;;;;4.97;100.00;100153.13;5120306;28;20215;-66
2023/12/09 07:08:36;;;;;;;21.95;13.75;;;;;;;4.94;100.00;100156.81;5125069;27;20023;-66
2023/12/09 07:11:01;;;;;;;26.23;13.75;;;;;;;4.79;100.00;100161.44;5133766;27;20030;-64
2023/12/09 07:13:27;;;;;;;30.73;15.60;;;;;;;4.91;100.00;100164.91;5134290;27;20047;-64
2023/12/09 07:15:52;;;;;;;26.52;13.30;;;;;;;5.14;100.00;100165.78;5134528;27;20031;-66
2023/12/09 07:18:18;;;;;;;23.65;14.32;;;;;;;5.32;100.00;100159.16;5134161;27;20233;-64
2023/12/09 07:20:44;;;;;;;21.17;11.82;;;;;;;5.43;99.73;100172.31;5134814;27;20043;-65
2023/12/09 07:23:09;;;;;;;22.85;13.05;;;;;;;5.46;99.31;100173.84;5135100;27;20754;-67
2023/12/09 07:25:35;;;;;;;29.75;17.50;;;;;;;5.48;99.58;100177.19;5135014;27;20045;-66
2023/12/09 07:28:00;;;;;;;23.08;14.20;;;;;;;5.66;99.64;100173.13;5136444;27;20031;-63
2023/12/09 07:30:26;;;;;;;29.48;16.27;;;;;;;5.79;97.77;100173.00;5137138;27;20267;-64
2023/12/09 07:32:51;;;;;;;26.40;15.88;;;;;;;5.83;98.72;100171.81;5138020;27;20035;-61
2023/12/09 07:35:17;;;;;;;32.47;19.45;;;;;;;5.70;98.09;100168.47;5137866;27;20629;-65
2023/12/09 07:37:44;;;;;;;27.15;14.93;;;;;;;5.70;97.94;100165.84;5137960;27;20023;-64
2023/12/09 07:40:11;;;;;;;28.65;18.25;;;;;;;5.55;97.91;100164.41;5137010;27;20037;-64
2023/12/09 07:42:37;;;;;;;30.60;16.38;;;;;;;5.73;99.74;100165.59;5119131;27;20282;-66
2023/12/09 07:45:04;;;;;;;28.40;14.95;;;;;;;5.85;98.94;100163.81;5137503;27;20098;-64
2023/12/09 07:47:30;;;;;;;26.35;14.70;;;;;;;5.72;98.03;100162.16;5136653;27;20031;-65
2023/12/09 07:49:55;;;;;;;27.63;17.40;;;;;;;5.76;99.03;100175.88;5137559;27;20073;-66
2023/12/09 07:52:21;;;;;;;31.17;16.20;;;;;;;5.75;98.98;100180.28;5138637;27;20038;-63
2023/12/09 07:54:46;;;;;;;28.15;15.75;;;;;;;5.58;99.54;100174.69;5137749;27;20340;-64
2023/12/09 07:57:14;;;;;;;28.15;15.32;;;;;;;5.65;100.00;100171.47;5137224;27;20038;-64
2023/12/09 07:59:39;;;;;;;28.08;14.40;;;;;;;5.79;100.00;100167.75;5136727;27;20039;-64
2023/12/09 08:02:05;;;;;;;29.73;13.95;;;;;;;5.85;99.86;100175.16;5137379;27;20281;-64
2023/12/09 08:04:31;;;;;;;27.08;14.13;;;;;;;5.85;99.68;100172.53;5137195;27;20548;-64
2023/12/09 08:06:56;;;;;;;29.65;13.88;;;;;;;5.89;99.23;100178.38;5136975;27;20389;-64
2023/12/09 08:09:22;;;;;;;24.17;14.18;;;;;;;5.81;98.77;100172.88;5136268;27;20031;-64
2023/12/09 08:11:47;;;;;;;27.40;14.35;;;;;;;5.81;99.55;100175.50;5137227;27;20046;-65
2023/12/09 08:14:13;;;;;;;28.23;14.35;;;;;;;5.63;100.00;100178.63;5135841;27;20046;-64
2023/12/09 08:16:38;;;;;;;26.25;13.32;;;;;;;5.67;99.99;100176.59;5136404;27;20023;-66
2023/12/09 08:19:04;;;;;;;29.45;14.27;;;;;;;5.61;100.00;100172.66;5134762;27;20035;-66
2023/12/09 08:21:35;;;;;;;23.38;13.57;;;;;;;5.56;100.00;100169.56;5136814;27;20038;-66
2023/12/09 08:24:01;;;;;;;28.63;14.65;;;;;;;5.45;100.00;100173.00;5136687;27;20148;-66
2023/12/09 08:26:27;;;;;;;28.40;15.57;;;;;;;5.33;100.00;100173.13;5136013;27;20042;-66
2023/12/09 08:28:53;;;;;;;25.65;14.68;;;;;;;5.70;100.00;100168.47;5136309;27;20031;-64
2023/12/09 08:31:18;;;;;;;24.95;13.25;;;;;;;5.99;100.00;100172.28;5136068;27;20349;-64
2023/12/09 08:33:44;;;;;;;25.73;14.10;;;;;;;6.03;100.00;100184.22;5136053;27;20324;-66
2023/12/09 08:36:10;;;;;;;25.13;13.50;;;;;;;5.96;100.00;100179.59;5136257;27;20347;-67
2023/12/09 08:38:35;;;;;;;23.48;12.93;;;;;;;5.91;100.00;100179.13;5136301;27;20271;-67
2023/12/09 08:41:01;;;;;;;27.40;13.27;;;;;;;5.90;100.00;100174.81;5136000;27;20038;-67
2023/12/09 08:43:27;;;;;;;26.23;13.73;;;;;;;6.02;100.00;100164.16;5135594;27;20031;-67
2023/12/09 08:45:52;;;;;;;25.23;14.15;;;;;;;6.18;100.00;100165.56;5137673;27;20221;-67
2023/12/09 08:48:18;;;;;;;23.15;12.93;;;;;;;6.33;100.00;100159.09;5145856;27;20035;-62
2023/12/09 08:50:43;;;;;;;18.95;11.18;;;;;;;6.36;100.00;100162.31;5137863;27;20035;-64
2023/12/09 08:53:09;;;;;;;18.58;10.98;;;;;;;6.42;100.00;100157.50;5136429;27;20019;-65
2023/12/09 08:55:35;;;;;;;18.88;10.20;;;;;;;6.39;99.84;100142.81;5136272;27;20325;-65
2023/12/09 08:58:00;;;;;;;17.02;8.93;;;;;;;6.52;99.42;100147.91;5138033;27;20336;-65
2023/12/09 09:00:26;;;;;;;18.67;9.63;;;;;;;6.60;98.88;100151.56;5136793;27;20345;-65
2023/12/09 09:02:55;;;;;;;19.80;9.43;;;;;;;6.68;99.75;100135.97;5136768;27;20058;-65
2023/12/09 09:05:24;;;;;;;18.45;11.25;;;;;;;6.70;100.00;100141.09;5136497;27;20239;-65
2023/12/09 09:07:49;;;;;;;17.70;10.73;;;;;;;6.81;100.00;100127.06;5136632;27;20038;-65
2023/12/09 09:10:15;;;;;;;14.85;8.77;;;;;;;6.80;98.91;100122.75;5136323;27;20109;-65
2023/12/09 09:12:43;;;;;;;19.67;9.93;;;;;;;6.97;98.66;100117.72;5136536;27;20035;-65
2023/12/09 09:15:09;;;;;;;21.88;11.10;;;;;;;6.94;96.94;100127.69;5135425;27;20436;-65
2023/12/09 09:17:39;;;;;;;21.25;13.55;;;;;;;6.83;97.81;100110.16;5136268;27;20043;-62
2023/12/09 09:20:05;;;;;;;22.67;13.75;;;;;;;6.87;98.92;100121.28;5135758;27;20220;-63
2023/12/09 09:22:31;;;;;;;20.55;11.10;;;;;;;6.94;98.07;100106.63;5137664;27;20032;-64
2023/12/09 09:24:58;;;;;;;22.65;13.70;;;;;;;7.05;98.93;100104.75;5135952;27;20464;-65
2023/12/09 09:27:23;;;;;;;20.80;12.20;;;;;;;7.14;96.82;100104.94;5136381;27;20031;-65
2023/12/09 09:29:49;;;;;;;20.55;11.85;;;;;;;7.03;96.34;100100.56;5135328;27;20062;-65
2023/12/09 09:32:16;;;;;;;27.10;17.20;;;;;;;6.95;98.46;100093.34;5135255;27;20328;-65
2023/12/09 09:34:42;;;;;;;19.48;11.60;;;;;;;7.13;98.27;100098.81;5135342;27;21085;-65
2023/12/09 09:37:08;;;;;;;18.60;10.75;;;;;;;7.22;98.96;100091.94;5135432;27;20130;-65
2023/12/09 09:39:34;;;;;;;15.65;10.93;;;;;;;7.33;97.05;100089.25;5135641;27;20042;-65
2023/12/09 09:42:32;;;;;;;14.68;10.38;;;;;;;7.42;96.60;100091.06;5136402;27;20043;-65
2023/12/09 09:45:23;;;;;;;16.15;9.65;;;;;;;7.46;94.97;100087.22;5116205;27;20074;-65
2023/12/09 09:47:49;;;;;;;13.77;8.68;;;;;;;7.50;93.75;100085.13;5135014;27;20201;-65
2023/12/09 09:50:26;;;;;;;14.80;9.65;;;;;;;7.28;92.64;100084.38;5134569;27;20056;-65
2023/12/09 09:52:53;;;;;;;16.15;10.18;;;;;;;7.38;93.43;100083.56;5134385;27;20103;-65
2023/12/09 09:55:21;;;;;;;14.10;8.77;;;;;;;7.30;93.58;100074.53;5136382;27;20039;-65
2023/12/09 09:57:48;;;;;;;13.90;8.95;;;;;;;7.39;92.13;100079.97;5135859;27;20057;-65
2023/12/09 10:00:15;;;;;;;13.80;9.27;;;;;;;7.56;92.86;100072.25;5135260;27;20031;-62
2023/12/09 10:02:45;;;;;;;10.52;6.97;;;;;;;7.66;91.09;100062.56;5136236;27;20028;-65
2023/12/09 10:05:13;;;;;;;13.45;7.55;;;;;;;7.69;90.37;100059.66;5135943;27;20042;-64
2023/12/09 10:07:39;;;;;;;12.35;8.85;;;;;;;7.61;90.41;100051.59;5136577;27;20068;-65
2023/12/09 10:10:06;;;;;;;13.23;8.23;;;;;;;7.81;91.29;100049.00;5135804;27;20043;-63
2023/12/09 10:12:33;;;;;;;16.70;10.50;;;;;;;7.76;90.33;100049.41;5135240;27;20387;-62
2023/12/09 10:15:03;;;;;;;13.43;11.43;;;;;;;7.56;89.64;100048.53;5136063;27;20336;-65
2023/12/09 10:17:30;;;;;;;18.35;7.63;;;;;;;7.75;88.57;100046.91;5135280;27;20220;-63
2023/12/09 10:19:56;;;;;;;16.48;12.40;;;;;;;7.62;90.12;100048.00;5134895;27;20115;-62
2023/12/09 10:22:22;;;;;;;13.48;8.45;;;;;;;7.67;89.62;100042.31;5135509;27;20039;-62
2023/12/09 10:24:51;;;;;;;17.27;12.38;;;;;;;7.64;89.66;100039.97;5135201;27;20039;-64
2023/12/09 10:27:25;;;;;;;16.65;10.55;;;;;;;7.92;89.86;100030.41;5135235;27;20106;-65
2023/12/09 10:29:54;;;;;;;15.60;8.93;;;;;;;7.98;89.30;100024.59;5134623;27;20256;-62
2023/12/09 10:32:21;;;;;;;15.35;9.90;;;;;;;8.14;87.64;100026.66;5134551;27;20035;-62
2023/12/09 10:34:50;;;;;;;15.20;9.10;;;;;;;8.22;87.27;100030.28;5134607;27;20047;-62
2023/12/09 10:37:17;;;;;;;14.20;8.45;;;;;;;8.27;85.66;100025.41;5135859;27;20034;-62
2023/12/09 10:39:47;;;;;;;14.43;9.40;;;;;;;8.35;86.50;100030.03;5135004;27;20069;-64
2023/12/09 10:42:13;;;;;;;19.00;13.80;;;;;;;8.36;86.53;100026.44;5135115;27;20027;-62
2023/12/09 10:44:39;;;;;;;16.92;10.13;;;;;;;8.51;86.82;100032.09;5134999;27;20027;-64
2023/12/09 10:47:05;;;;;;;17.33;9.25;;;;;;;8.52;86.30;100025.84;5134638;27;20067;-64
2023/12/09 10:49:31;;;;;;;16.13;9.23;;;;;;;8.47;86.71;100025.44;5134573;27;20627;-61
2023/12/09 10:51:57;;;;;;;16.98;9.18;;;;;;;8.48;84.85;100021.84;5135657;27;20310;-61
2023/12/09 10:54:23;;;;;;;19.17;11.20;;;;;;;8.37;84.78;100016.72;5135078;27;20046;-62
2023/12/09 10:56:49;;;;;;;20.45;11.55;;;;;;;8.35;85.07;100008.09;5134581;27;20035;-65
2023/12/09 10:59:18;;;;;;;12.77;7.68;;;;;;;8.41;84.80;100018.94;5133881;27;20054;-62
2023/12/09 11:01:45;;;;;;;15.80;8.70;;;;;;;8.47;85.58;100010.44;5134913;27;20151;-65
2023/12/09 11:04:12;;;;;;;17.08;10.95;;;;;;;8.46;84.87;100014.06;5138617;27;20046;-65
2023/12/09 11:06:39;;;;;;;16.90;8.95;;;;;;;8.48;84.40;100009.47;5136355;27;20030;-62
2023/12/09 11:09:07;;;;;;;15.75;12.40;;;;;;;8.16;85.75;100006.25;5132193;27;20035;-61
2023/12/09 11:11:33;;;;;;;14.07;8.70;;;;;;;8.32;85.80;100004.75;5125253;27;20039;-61
2023/12/09 11:13:59;;;;;;;16.80;11.43;;;;;;;8.34;85.69;100001.16;5125431;27;20042;-66